Time,TemperatureF,DewpointF,PressureIn,WindDirection,WindDirectionDegrees,WindSpeedMPH,WindSpeedGustMPH,Humidity,HourlyPrecipIn,Conditions,Clouds,dailyrainin,SoftwareType,DateUTC
2013-11-11 00:13:00,46.0,30.0,30.03,NW,319,6.0,21.0,53,0.00,,,0.00,,2013-11-11 05:13:00,
2013-11-11 00:23:00,46.0,30.0,30.03,WNW,286,6.0,18.0,53,0.00,,,0.00,,2013-11-11 05:23:00,
2013-11-11 00:43:00,46.0,29.0,30.04,NNW,338,12.0,25.0,51,0.00,,,0.00,,2013-11-11 05:43:00,
2013-11-11 00:54:00,45.0,28.0,30.04,WNW,293,6.0,21.0,51,0.00,,,0.00,,2013-11-11 05:54:00,
2013-11-11 01:13:00,45.0,27.0,30.05,NNE,19,11.0,21.0,50,0.00,,,0.00,,2013-11-11 06:13:00,
2013-11-11 01:22:00,45.0,27.0,30.04,NNW,347,6.0,25.0,49,0.00,,,0.00,,2013-11-11 06:22:00,
2013-11-11 01:42:00,45.0,28.0,30.05,North,359,5.0,16.0,51,0.00,,,0.00,,2013-11-11 06:42:00,
2013-11-11 01:52:00,44.0,27.0,30.07,NW,315,6.0,18.0,51,0.00,,,0.00,,2013-11-11 06:52:00,
2013-11-11 02:12:00,44.0,27.0,30.08,NW,326,4.0,12.0,51,0.00,,,0.00,,2013-11-11 07:12:00,
2013-11-11 02:22:00,44.0,28.0,30.08,NNW,329,1.0,8.0,52,0.00,,,0.00,,2013-11-11 07:22:00,
2013-11-11 02:42:00,44.0,28.0,30.09,WNW,302,3.0,10.0,52,0.00,,,0.00,,2013-11-11 07:42:00,
2013-11-11 02:52:00,44.0,28.0,30.09,WNW,288,4.0,13.0,52,0.00,,,0.00,,2013-11-11 07:52:00,
2013-11-11 03:12:00,44.0,27.0,30.10,NNW,329,5.0,19.0,51,0.00,,,0.00,,2013-11-11 08:12:00,
2013-11-11 03:22:00,44.0,27.0,30.11,NNW,345,4.0,13.0,51,0.00,,,0.00,,2013-11-11 08:22:00,
2013-11-11 03:42:00,44.0,27.0,30.11,NW,323,6.0,16.0,51,0.00,,,0.00,,2013-11-11 08:42:00,
2013-11-11 03:52:00,43.0,27.0,30.11,NNW,340,5.0,15.0,52,0.00,,,0.00,,2013-11-11 08:52:00,
2013-11-11 04:11:00,43.0,26.0,30.12,North,355,7.0,15.0,51,0.00,,,0.00,,2013-11-11 09:11:00,
2013-11-11 04:22:00,42.0,25.0,30.13,NNW,335,4.0,14.0,51,0.00,,,0.00,,2013-11-11 09:22:00,
2013-11-11 04:43:00,42.0,27.0,30.13,NNW,335,5.0,13.0,54,0.00,,,0.00,,2013-11-11 09:43:00,
2013-11-11 04:53:00,42.0,25.0,30.14,NW,319,4.0,15.0,51,0.00,,,0.00,,2013-11-11 09:53:00,
2013-11-11 05:13:00,42.0,25.0,30.14,North,10,5.0,11.0,51,0.00,,,0.00,,2013-11-11 10:13:00,
2013-11-11 05:23:00,42.0,26.0,30.14,WNW,303,3.0,11.0,52,0.00,,,0.00,,2013-11-11 10:23:00,
2013-11-11 05:42:00,41.0,25.0,30.14,NNW,335,4.0,12.0,52,0.00,,,0.00,,2013-11-11 10:42:00,
2013-11-11 05:52:00,41.0,26.0,30.14,WSW,240,2.0,8.0,54,0.00,,,0.00,,2013-11-11 10:52:00,
2013-11-11 06:12:00,41.0,25.0,30.15,WNW,286,3.0,8.0,53,0.00,,,0.00,,2013-11-11 11:12:00,
2013-11-11 06:21:00,41.0,26.0,30.16,WNW,282,2.0,6.0,54,0.00,,,0.00,,2013-11-11 11:21:00,
2013-11-11 06:42:00,41.0,26.0,30.16,NW,316,3.0,5.0,55,0.00,,,0.00,,2013-11-11 11:42:00,
2013-11-11 06:52:00,41.0,26.0,30.17,NE,42,4.0,13.0,54,0.00,,,0.00,,2013-11-11 11:52:00,
2013-11-11 07:12:00,41.0,26.0,30.17,NW,312,3.0,10.0,55,0.00,,,0.00,,2013-11-11 12:12:00,
2013-11-11 07:22:00,41.0,27.0,30.18,WNW,293,5.0,10.0,56,0.00,,,0.00,,2013-11-11 12:22:00,
2013-11-11 07:42:00,41.0,27.0,30.18,NW,305,5.0,12.0,56,0.00,,,0.00,,2013-11-11 12:42:00,
2013-11-11 07:52:00,41.0,27.0,30.18,NW,307,3.0,12.0,56,0.00,,,0.00,,2013-11-11 12:52:00,
2013-11-11 08:11:00,42.0,27.0,30.18,NW,319,3.0,8.0,55,0.00,,,0.00,,2013-11-11 13:11:00,
2013-11-11 08:22:00,42.0,27.0,30.19,NNW,346,8.0,14.0,54,0.00,,,0.00,,2013-11-11 13:22:00,
2013-11-11 08:42:00,42.0,27.0,30.19,North,11,5.0,12.0,55,0.00,,,0.00,,2013-11-11 13:42:00,
2013-11-11 08:52:00,42.0,27.0,30.18,NNE,24,6.0,14.0,55,0.00,,,0.00,,2013-11-11 13:52:00,
2013-11-11 09:22:00,42.0,27.0,30.18,NNE,23,7.0,16.0,55,0.00,,,0.00,,2013-11-11 14:22:00,
2013-11-11 09:42:00,43.0,28.0,30.19,WNW,285,7.0,16.0,54,0.00,,,0.00,,2013-11-11 14:42:00,
2013-11-11 09:52:00,43.0,27.0,30.18,WNW,297,6.0,16.0,53,0.00,,,0.00,,2013-11-11 14:52:00,
2013-11-11 10:11:00,44.0,27.0,30.17,NE,51,4.0,12.0,51,0.00,,,0.00,,2013-11-11 15:11:00,
2013-11-11 10:22:00,44.0,27.0,30.18,WNW,298,4.0,13.0,51,0.00,,,0.00,,2013-11-11 15:22:00,
2013-11-11 10:43:00,45.0,28.0,30.18,NNW,348,4.0,11.0,51,0.00,,,0.00,,2013-11-11 15:43:00,
2013-11-11 10:53:00,45.0,27.0,30.18,WNW,302,6.0,14.0,50,0.00,,,0.00,,2013-11-11 15:53:00,
2013-11-11 11:13:00,45.0,27.0,30.17,East,89,4.0,9.0,50,0.00,,,0.00,,2013-11-11 16:13:00,
2013-11-11 11:23:00,46.0,28.0,30.15,NE,37,4.0,8.0,49,0.00,,,0.00,,2013-11-11 16:23:00,
2013-11-11 11:42:00,46.0,28.0,30.14,North,351,4.0,8.0,49,0.00,,,0.00,,2013-11-11 16:42:00,
2013-11-11 11:53:00,48.0,29.0,30.14,NNW,347,2.0,8.0,47,0.00,,,0.00,,2013-11-11 16:53:00,
2013-11-11 12:12:00,48.0,28.0,30.14,WNW,290,5.0,11.0,45,0.00,,,0.00,,2013-11-11 17:12:00,
2013-11-11 12:22:00,48.0,29.0,30.14,NNW,331,3.0,8.0,47,0.00,,,0.00,,2013-11-11 17:22:00,
2013-11-11 12:42:00,48.0,28.0,30.13,West,261,6.0,10.0,46,0.00,,,0.00,,2013-11-11 17:42:00,
2013-11-11 12:52:00,49.0,29.0,30.12,NNW,330,4.0,12.0,46,0.00,,,0.00,,2013-11-11 17:52:00,
2013-11-11 13:13:00,48.0,28.0,30.11,West,262,3.0,11.0,46,0.00,,,0.00,,2013-11-11 18:13:00,
2013-11-11 13:23:00,48.0,29.0,30.11,WNW,282,5.0,13.0,47,0.00,,,0.00,,2013-11-11 18:23:00,
2013-11-11 13:42:00,49.0,30.0,30.10,SW,233,5.0,10.0,47,0.00,,,0.00,,2013-11-11 18:42:00,
2013-11-11 13:52:00,50.0,29.0,30.09,SSW,212,4.0,11.0,44,0.00,,,0.00,,2013-11-11 18:52:00,
2013-11-11 14:12:00,51.0,29.0,30.08,WSW,241,7.0,16.0,43,0.00,,,0.00,,2013-11-11 19:12:00,
2013-11-11 14:22:00,50.0,28.0,30.07,SW,231,7.0,14.0,43,0.00,,,0.00,,2013-11-11 19:22:00,
2013-11-11 14:42:00,51.0,30.0,30.06,SW,231,4.0,11.0,44,0.00,,,0.00,,2013-11-11 19:42:00,
2013-11-11 14:53:00,51.0,29.0,30.06,SW,229,8.0,13.0,43,0.00,,,0.00,,2013-11-11 19:53:00,
2013-11-11 15:11:00,50.0,29.0,30.06,SW,222,7.0,16.0,44,0.00,,,0.00,,2013-11-11 20:11:00,
2013-11-11 15:22:00,50.0,30.0,30.05,West,259,3.0,11.0,46,0.00,,,0.00,,2013-11-11 20:22:00,
2013-11-11 15:42:00,50.0,30.0,30.06,WNW,284,2.0,10.0,46,0.00,,,0.00,,2013-11-11 20:42:00,
2013-11-11 15:52:00,50.0,30.0,30.06,SW,221,3.0,13.0,46,0.00,,,0.00,,2013-11-11 20:52:00,
2013-11-11 16:12:00,50.0,31.0,30.04,SW,234,3.0,7.0,47,0.00,,,0.00,,2013-11-11 21:12:00,
2013-11-11 16:22:00,50.0,30.0,30.03,SW,236,4.0,11.0,46,0.00,,,0.00,,2013-11-11 21:22:00,
2013-11-11 16:43:00,50.0,30.0,30.03,SW,231,4.0,11.0,46,0.00,,,0.00,,2013-11-11 21:43:00,
2013-11-11 16:55:00,50.0,31.0,30.02,WSW,245,3.0,10.0,47,0.00,,,0.00,,2013-11-11 21:55:00,
2013-11-11 17:14:00,50.0,31.0,30.02,WSW,246,3.0,10.0,47,0.00,,,0.00,,2013-11-11 22:14:00,
2013-11-11 17:24:00,50.0,31.0,30.02,SW,236,4.0,15.0,47,0.00,,,0.00,,2013-11-11 22:24:00,
2013-11-11 17:43:00,50.0,31.0,30.01,West,259,4.0,12.0,47,0.00,,,0.00,,2013-11-11 22:43:00,
2013-11-11 17:53:00,50.0,31.0,30.01,SSW,197,4.0,11.0,47,0.00,,,0.00,,2013-11-11 22:53:00,
2013-11-11 18:13:00,50.0,31.0,30.01,West,266,5.0,12.0,47,0.00,,,0.00,,2013-11-11 23:13:00,
2013-11-11 18:22:00,50.0,30.0,30.02,West,266,4.0,12.0,46,0.00,,,0.00,,2013-11-11 23:22:00,
2013-11-11 18:42:00,50.0,31.0,30.01,West,261,4.0,13.0,47,0.00,,,0.00,,2013-11-11 23:42:00,
2013-11-11 18:53:00,50.0,31.0,30.01,WSW,243,4.0,11.0,48,0.00,,,0.00,,2013-11-11 23:53:00,
2013-11-11 19:12:00,50.0,31.0,30.01,West,265,5.0,14.0,48,0.00,,,0.00,,2013-11-12 00:12:00,
2013-11-11 19:22:00,50.0,32.0,30.00,SW,235,3.0,10.0,49,0.00,,,0.00,,2013-11-12 00:22:00,
2013-11-11 19:42:00,50.0,32.0,29.99,SSW,194,3.0,10.0,49,0.00,,,0.00,,2013-11-12 00:42:00,
2013-11-11 19:52:00,50.0,32.0,29.99,West,260,4.0,11.0,50,0.00,,,0.00,,2013-11-12 00:52:00,
2013-11-11 20:11:00,50.0,33.0,29.99,SSE,166,4.0,13.0,51,0.00,,,0.00,,2013-11-12 01:11:00,
2013-11-11 20:22:00,49.0,32.0,29.99,SW,224,3.0,10.0,52,0.00,,,0.00,,2013-11-12 01:22:00,
2013-11-11 20:42:00,49.0,32.0,29.99,WSW,247,5.0,10.0,52,0.00,,,0.00,,2013-11-12 01:42:00,
2013-11-11 20:52:00,49.0,33.0,29.99,SW,231,6.0,12.0,53,0.00,,,0.00,,2013-11-12 01:52:00,
2013-11-11 21:12:00,49.0,33.0,29.99,SSW,212,5.0,10.0,53,0.00,,,0.00,,2013-11-12 02:12:00,
2013-11-11 21:22:00,49.0,32.0,29.98,WSW,247,4.0,10.0,52,0.00,,,0.00,,2013-11-12 02:22:00,
2013-11-11 21:42:00,49.0,32.0,29.98,SW,226,3.0,11.0,52,0.00,,,0.00,,2013-11-12 02:42:00,
2013-11-11 21:52:00,49.0,32.0,29.98,SE,136,2.0,11.0,52,0.00,,,0.00,,2013-11-12 02:52:00,
2013-11-11 22:11:00,49.0,32.0,29.98,WNW,293,2.0,8.0,52,0.00,,,0.00,,2013-11-12 03:11:00,
2013-11-11 22:22:00,49.0,32.0,29.98,West,267,4.0,8.0,52,0.00,,,0.00,,2013-11-12 03:22:00,
2013-11-11 22:45:00,49.0,32.0,29.97,South,191,2.0,9.0,52,0.00,,,0.00,,2013-11-12 03:45:00,
2013-11-11 22:54:00,49.0,32.0,29.96,West,269,2.0,10.0,52,0.00,,,0.00,,2013-11-12 03:54:00,
2013-11-11 23:14:00,49.0,32.0,29.96,West,274,3.0,8.0,52,0.00,,,0.00,,2013-11-12 04:14:00,
2013-11-11 23:24:00,49.0,32.0,29.96,West,263,3.0,10.0,52,0.00,,,0.00,,2013-11-12 04:24:00,
2013-11-11 23:43:00,49.0,32.0,29.95,SW,230,5.0,10.0,52,0.00,,,0.00,,2013-11-12 04:43:00,
2013-11-11 23:53:00,49.0,32.0,29.95,WNW,299,4.0,8.0,52,0.00,,,0.00,,2013-11-12 04:53:00,